Filtermöglichkeiten

Zertifikate-Typ:
Basiswert-Typ:
Herkunft:
Branche:
Basiswert:
Typ:
Quanto:
Restlaufzeit:
Hebel:
Abst. Strike:
Spread:

Suchergebnisse Alle Zertifikate

WKN Underlying Laufzeit Art Spread rel. Restlaufzeit Sparplan Bid Ask
JX1PD7 Kimberly-Clark 28.01.22 16,67% 44 nein 0,12 0,14
JX1PMX Plug Power 28.01.22 5,88% 44 nein 0,17 0,18
JX1PPQ Sibanye-Stillwater ADR 28.01.22 - 44 nein -   -  
JX1P06 Coinbase 28.01.22 17,54% 44 nein 0,057 0,067
JX1NYX Caterpillar 28.01.22 3,08% 44 nein 0,65 0,67
JX1PNQ Regeneron Pharmaceuticals 28.01.22 10,00% 44 nein 0,10 0,11
JX1PL6 UiPath 28.01.22 3,85% 44 nein 0,26 0,27
JX1NWK ASML Holding 28.01.22 21,37% 44 nein 2,34 2,84
JX1P3Y Docusign 28.01.22 - 44 nein -   -  
JX1NZ2 Cadence Design Systems 28.01.22 - 44 nein -   -  
JX1NVT American Superconductor 28.01.22 - 44 nein -   -  
JX1PU6 Taiwan Semiconductor Manufacturing Company ADR 28.01.22 5,56% 44 nein 0,18 0,19
JX1PM4 Parker-Hannifin 28.01.22 22,22% 44 nein 0,36 0,44
JX1PY5 Zoom Video Communications A 28.01.22 6,25% 44 nein 0,16 0,17
JX1P33 Citrix Systems 28.01.22 13,33% 44 nein 0,15 0,17
JX1PKD Okta 28.01.22 2,63% 44 nein 1,90 1,95
JX1NYL BioNTech SE ADR 28.01.22 - 44 nein -   -  
JX1PKQ On Semiconductor 28.01.22 2,08% 44 nein 0,48 0,49
JX1PDJ Lithium Americas 28.01.22 2,78% 44 nein 0,36 0,37
JX1P6K Etsy 28.01.22 4,62% 44 nein 0,65 0,68
JX1PBB Barrick Gold 28.01.22 4,76% 44 nein 0,42 0,44
JX1P1M Salesforce.com 28.01.22 0,74% 44 nein 2,70 2,72
JX1NWV Broadcom 28.01.22 4,55% 44 nein 0,22 0,23
JX1PWD VMware 28.01.22 18,18% 44 nein 0,11 0,13
JX1P2C CrowdStrike Holding 28.01.22 1,96% 44 nein 0,51 0,52
JX1NVK AMD 28.01.22 18,52% 44 nein 0,054 0,064
JX1PR6 Snap 28.01.22 - 44 nein -   -  
JX1PBL Goldman Sachs 28.01.22 9,09% 44 nein 0,11 0,12
JX1PHV Servicenow 28.01.22 2,33% 44 nein 0,43 0,44
JX1NUP Adyen 28.01.22 7,08% 44 nein 2,12 2,27
JX1PXL Workday 28.01.22 33,33% 44 nein 0,15 0,20
JX1PPD Rockwell Automation 28.01.22 16,67% 44 nein 0,48 0,56
JX1PJP NetEase ADR 28.01.22 18,75% 44 nein 0,16 0,19
JX1P1U Salesforce.com 28.01.22 - 44 nein -   -  
JX1P5M Etsy 28.01.22 6,82% 44 nein 0,44 0,47
JX1PWU Volkswagen Vz 28.01.22 - 44 nein -   -  
JX1PDG Lithium Americas 28.01.22 3,03% 44 nein 0,33 0,34
JX1PF9 MercadoLibre 28.01.22 1,72% 44 nein 1,16 1,18
JX1P70 Etsy 28.01.22 - 44 nein -   -  
JX1PTK Teva Pharmaceutical ADR 28.01.22 11,76% 44 nein 0,17 0,19
Seite:: 1 | ... | 621 | 622 | 623 |
| 625    

Spalten für Suchergebnisse "Alle Zertifikate" auswählen

            

Werbung
finanzen.net zero
finanzen.net zero

Oskar

ETF-Sparplan

Oskar ist der einfache und intelligente ETF-Sparplan. Er übernimmt die ETF-Auswahl, ist steuersmart, transparent und kostengünstig.
Zur klassischen Ansicht wechseln